Impacts TAF Board
For situational awareness. Not to be used for flight planning purposes.
IDs:

KORD - Chicago/O'Hare Intl, IL, US

Issued at 1125 UTC 21 Sep 2018
Updated at 1127 UTC 21 Sep 2018
Potential Impact None Slight Moderate High
Time<<22/00Z 22/01Z 22/02Z 22/03Z 22/04Z 22/05Z 22/06Z 22/07Z 22/08Z 22/09Z 22/10Z 22/11Z 22/12Z>>
Type PRVL PRVL PRVL PRVL PRVL PRVL PRVL PRVL PRVL PRVL PRVL PRVL PRVL
VIS >6 >6 >6 >6 >6 >6 >6 >6 >6 >6 >6 >6 >6
CIG -- -- -- -- -- -- -- 30 30 30 30 30 30
Cover SCT SCT SCT SCT SCT SCT SCT BKN BKN BKN BKN BKN BKN
FltCat VFR VFR VFR VFR VFR VFR VFR MVFR MVFR MVFR MVFR MVFR MVFR
WX -- -- -- -- -- -- -- -- -- -- -- -- --
WDir 310 310 350 350 350 350 350 30 30 30 30 30 30
WSpd 14 14 12 12 12 12 12 11 11 11 11 11 11
WGst 23 23 18 18 18 18 18 -- -- -- -- -- --
Raw TAF
KORD 211125Z 2112/2218 24018G27KT P6SM SCT070 SCT120 BKN250
  FM211500 28017G25KT P6SM BKN035 BKN250
  FM212100 31014G23KT P6SM SCT040 SCT250
  FM220200 35012G18KT P6SM FEW030 SCT250
  FM220700 03011KT P6SM BKN030
  FM221300 09010KT P6SM SCT035


METAR Board
Radar Display
Forecast Discussion
For situational awareness. Not to be used for flight planning purposes.